Bellvale, New York
Current Conditions -  °F | °C
As of 10:53 AM on Friday 21 Nov 2014 (Local Time) from KFWN Reporting Station
Few Clouds Few Clouds  
Wind Chill: 22°   Ceiling: Unl
Heat Index: 31°   Visibility: 10mi
Dew Point: 11°   Wind: 12mph
Humidity: 43%   Direction: 310°NW
Pressure: 30.28"   Gusts: 22mph
Location:  41.25°N, 74.31°W
Report Text: KFWN 211553Z AUTO 31010G19KT 280V350 10SM FEW046 M01/M12 A3028 RMK AO2 SLP256 T10061117
Loading
Personal Weather Stations






























Interactive Weather Map New forecast layout! Learn more

10-Day Weather Forecast

Advertisements
Track Severe Weather on mobile